sensor_id;sensor_type;location;lat;lon;timestamp;temperature;humidity
997;DHT22;487;50.126;8.698;2023-09-12T04:00:14;21.60;99.90
997;DHT22;487;50.126;8.698;2023-09-12T04:02:42;21.50;99.90
997;DHT22;487;50.126;8.698;2023-09-12T04:05:10;21.50;99.90
997;DHT22;487;50.126;8.698;2023-09-12T04:07:38;21.50;99.90
997;DHT22;487;50.126;8.698;2023-09-12T04:10:08;21.50;99.90
997;DHT22;487;50.126;8.698;2023-09-12T04:12:36;21.50;99.90
997;DHT22;487;50.126;8.698;2023-09-12T04:17:44;21.70;99.90
997;DHT22;487;50.126;8.698;2023-09-12T04:20:12;21.60;99.90
997;DHT22;487;50.126;8.698;2023-09-12T04:22:42;21.60;99.90
997;DHT22;487;50.126;8.698;2023-09-12T04:25:10;21.50;99.90
997;DHT22;487;50.126;8.698;2023-09-12T04:27:38;21.50;99.90
997;DHT22;487;50.126;8.698;2023-09-12T04:30:07;21.50;99.90
997;DHT22;487;50.126;8.698;2023-09-12T04:32:35;21.40;99.90
997;DHT22;487;50.126;8.698;2023-09-12T04:35:05;21.50;99.90
997;DHT22;487;50.126;8.698;2023-09-12T04:40:01;21.60;99.90
997;DHT22;487;50.126;8.698;2023-09-12T04:42:32;21.60;99.90
997;DHT22;487;50.126;8.698;2023-09-12T04:49:56;21.80;99.90
997;DHT22;487;50.126;8.698;2023-09-12T04:52:26;21.80;99.90
997;DHT22;487;50.126;8.698;2023-09-12T04:54:53;21.90;99.90
997;DHT22;487;50.126;8.698;2023-09-12T04:57:21;21.90;99.90
997;DHT22;487;50.126;8.698;2023-09-12T04:59:51;21.90;99.90
997;DHT22;487;50.126;8.698;2023-09-12T05:02:18;21.90;99.90
997;DHT22;487;50.126;8.698;2023-09-12T05:04:46;21.90;99.90
997;DHT22;487;50.126;8.698;2023-09-12T05:07:15;21.80;99.90
997;DHT22;487;50.126;8.698;2023-09-12T05:09:44;21.80;99.90
997;DHT22;487;50.126;8.698;2023-09-12T05:14:40;21.70;99.90
997;DHT22;487;50.126;8.698;2023-09-12T05:19:36;21.60;99.90
997;DHT22;487;50.126;8.698;2023-09-12T05:24:32;21.40;99.90
997;DHT22;487;50.126;8.698;2023-09-12T05:27:02;21.30;99.90
997;DHT22;487;50.126;8.698;2023-09-12T05:29:32;21.30;99.90
997;DHT22;487;50.126;8.698;2023-09-12T05:31:59;21.20;99.90
997;DHT22;487;50.126;8.698;2023-09-12T05:36:56;21.20;99.90
997;DHT22;487;50.126;8.698;2023-09-12T05:46:50;21.00;99.90
997;DHT22;487;50.126;8.698;2023-09-12T05:54:14;21.10;99.90
997;DHT22;487;50.126;8.698;2023-09-12T05:56:42;21.20;99.90
997;DHT22;487;50.126;8.698;2023-09-12T05:59:10;21.30;99.90
997;DHT22;487;50.126;8.698;2023-09-12T06:04:07;21.30;99.90
997;DHT22;487;50.126;8.698;2023-09-12T06:06:36;21.30;99.90
997;DHT22;487;50.126;8.698;2023-09-12T06:09:05;21.30;99.90
997;DHT22;487;50.126;8.698;2023-09-12T06:16:32;21.20;99.90
997;DHT22;487;50.126;8.698;2023-09-12T06:19:01;21.20;99.90
997;DHT22;487;50.126;8.698;2023-09-12T06:24:10;21.30;99.90
997;DHT22;487;50.126;8.698;2023-09-12T06:26:39;21.40;99.90
997;DHT22;487;50.126;8.698;2023-09-12T06:29:07;21.40;99.90
997;DHT22;487;50.126;8.698;2023-09-12T06:31:35;21.40;99.90
997;DHT22;487;50.126;8.698;2023-09-12T06:34:04;21.40;99.90
997;DHT22;487;50.126;8.698;2023-09-12T06:39:01;21.40;99.90
997;DHT22;487;50.126;8.698;2023-09-12T06:41:29;21.40;99.90
997;DHT22;487;50.126;8.698;2023-09-12T06:43:57;21.40;99.90
997;DHT22;487;50.126;8.698;2023-09-12T06:46:26;21.40;99.90
997;DHT22;487;50.126;8.698;2023-09-12T06:48:54;21.40;99.90
997;DHT22;487;50.126;8.698;2023-09-12T06:51:25;21.40;99.90
997;DHT22;487;50.126;8.698;2023-09-12T06:53:59;21.40;99.90
997;DHT22;487;50.126;8.698;2023-09-12T06:56:27;21.50;99.90
997;DHT22;487;50.126;8.698;2023-09-12T07:03:54;21.50;99.90
997;DHT22;487;50.126;8.698;2023-09-12T07:18:48;21.60;99.90
997;DHT22;487;50.126;8.698;2023-09-12T07:23:44;21.50;99.90
997;DHT22;487;50.126;8.698;2023-09-12T07:26:14;21.60;99.90
997;DHT22;487;50.126;8.698;2023-09-12T07:31:10;21.60;99.90
997;DHT22;487;50.126;8.698;2023-09-12T07:33:39;21.60;99.90
997;DHT22;487;50.126;8.698;2023-09-12T07:36:08;21.70;99.90
997;DHT22;487;50.126;8.698;2023-09-12T07:38:36;21.80;99.90
997;DHT22;487;50.126;8.698;2023-09-12T07:41:04;22.00;99.90
997;DHT22;487;50.126;8.698;2023-09-12T07:43:33;22.00;99.90
997;DHT22;487;50.126;8.698;2023-09-12T07:46:01;22.10;99.90
997;DHT22;487;50.126;8.698;2023-09-12T07:50:58;22.30;99.90
997;DHT22;487;50.126;8.698;2023-09-12T07:53:26;22.30;99.90
997;DHT22;487;50.126;8.698;2023-09-12T07:58:22;22.40;99.90
997;DHT22;487;50.126;8.698;2023-09-12T08:00:51;22.40;99.90
997;DHT22;487;50.126;8.698;2023-09-12T08:05:54;22.60;99.90
997;DHT22;487;50.126;8.698;2023-09-12T08:10:50;22.70;99.90
997;DHT22;487;50.126;8.698;2023-09-12T08:15:46;22.60;99.90
997;DHT22;487;50.126;8.698;2023-09-12T08:18:16;22.70;99.90
997;DHT22;487;50.126;8.698;2023-09-12T08:20:43;22.80;99.90
997;DHT22;487;50.126;8.698;2023-09-12T08:25:40;22.90;99.90
997;DHT22;487;50.126;8.698;2023-09-12T08:30:36;22.90;99.90
997;DHT22;487;50.126;8.698;2023-09-12T08:33:04;22.90;99.90
997;DHT22;487;50.126;8.698;2023-09-12T08:35:34;23.00;99.90
997;DHT22;487;50.126;8.698;2023-09-12T08:40:32;23.10;99.90
997;DHT22;487;50.126;8.698;2023-09-12T08:43:02;23.10;99.90
997;DHT22;487;50.126;8.698;2023-09-12T08:48:00;23.30;99.90
997;DHT22;487;50.126;8.698;2023-09-12T08:50:29;23.30;99.90
997;DHT22;487;50.126;8.698;2023-09-12T08:53:01;23.30;99.90
997;DHT22;487;50.126;8.698;2023-09-12T08:55:34;23.40;99.90
997;DHT22;487;50.126;8.698;2023-09-12T08:58:04;23.60;99.90
997;DHT22;487;50.126;8.698;2023-09-12T09:00:34;23.50;99.90
997;DHT22;487;50.126;8.698;2023-09-12T09:03:03;23.60;99.90
997;DHT22;487;50.126;8.698;2023-09-12T09:05:32;23.60;99.90
997;DHT22;487;50.126;8.698;2023-09-12T09:08:03;23.70;99.90
997;DHT22;487;50.126;8.698;2023-09-12T09:10:31;23.80;99.90
997;DHT22;487;50.126;8.698;2023-09-12T09:13:03;23.90;99.90
997;DHT22;487;50.126;8.698;2023-09-12T09:18:04;24.10;99.90
997;DHT22;487;50.126;8.698;2023-09-12T09:20:34;24.20;99.90
997;DHT22;487;50.126;8.698;2023-09-12T09:23:05;24.30;99.90
997;DHT22;487;50.126;8.698;2023-09-12T09:25:37;24.30;99.90
997;DHT22;487;50.126;8.698;2023-09-12T09:28:16;24.30;99.90
997;DHT22;487;50.126;8.698;2023-09-12T09:30:46;24.40;99.90
997;DHT22;487;50.126;8.698;2023-09-12T09:33:14;24.40;99.70
997;DHT22;487;50.126;8.698;2023-09-12T09:35:45;24.50;99.90
997;DHT22;487;50.126;8.698;2023-09-12T09:38:18;24.50;99.60
997;DHT22;487;50.126;8.698;2023-09-12T09:40:48;24.50;99.60
997;DHT22;487;50.126;8.698;2023-09-12T09:43:19;24.60;99.90
997;DHT22;487;50.126;8.698;2023-09-12T09:48:20;24.70;99.70
997;DHT22;487;50.126;8.698;2023-09-12T09:50:48;25.00;99.90
997;DHT22;487;50.126;8.698;2023-09-12T09:53:21;24.80;97.90
997;DHT22;487;50.126;8.698;2023-09-12T09:55:49;24.90;99.00
997;DHT22;487;50.126;8.698;2023-09-12T10:00:46;25.10;98.60
997;DHT22;487;50.126;8.698;2023-09-12T10:03:18;25.20;98.60
997;DHT22;487;50.126;8.698;2023-09-12T10:06:00;25.20;98.80
997;DHT22;487;50.126;8.698;2023-09-12T10:08:32;25.20;97.40
997;DHT22;487;50.126;8.698;2023-09-12T10:11:00;25.30;96.50
997;DHT22;487;50.126;8.698;2023-09-12T10:13:29;25.40;96.00
997;DHT22;487;50.126;8.698;2023-09-12T10:16:01;25.50;94.60
997;DHT22;487;50.126;8.698;2023-09-12T10:18:35;25.50;92.20
997;DHT22;487;50.126;8.698;2023-09-12T10:21:11;25.60;91.60
997;DHT22;487;50.126;8.698;2023-09-12T10:23:44;25.70;91.30
997;DHT22;487;50.126;8.698;2023-09-12T10:26:13;25.80;90.40
997;DHT22;487;50.126;8.698;2023-09-12T10:28:42;25.80;91.20
997;DHT22;487;50.126;8.698;2023-09-12T10:31:12;25.80;80.10
997;DHT22;487;50.126;8.698;2023-09-12T10:33:40;24.20;77.30
997;DHT22;487;50.126;8.698;2023-09-12T10:36:09;25.90;82.10
997;DHT22;487;50.126;8.698;2023-09-12T10:38:42;26.00;79.20
997;DHT22;487;50.126;8.698;2023-09-12T10:41:12;26.20;78.80
997;DHT22;487;50.126;8.698;2023-09-12T10:43:43;26.20;76.80
997;DHT22;487;50.126;8.698;2023-09-12T10:48:41;26.40;76.40
997;DHT22;487;50.126;8.698;2023-09-12T10:51:11;26.60;77.50
997;DHT22;487;50.126;8.698;2023-09-12T10:53:45;26.60;76.60
997;DHT22;487;50.126;8.698;2023-09-12T10:56:18;26.70;75.50
997;DHT22;487;50.126;8.698;2023-09-12T10:59:09;26.80;74.90
997;DHT22;487;50.126;8.698;2023-09-12T11:01:38;26.70;75.10
997;DHT22;487;50.126;8.698;2023-09-12T11:04:31;26.70;74.70
997;DHT22;487;50.126;8.698;2023-09-12T11:07:32;26.70;76.10
997;DHT22;487;50.126;8.698;2023-09-12T11:10:20;26.70;77.10
997;DHT22;487;50.126;8.698;2023-09-12T11:12:49;26.80;77.20
997;DHT22;487;50.126;8.698;2023-09-12T11:15:19;26.80;72.90
997;DHT22;487;50.126;8.698;2023-09-12T11:17:48;26.80;70.50
997;DHT22;487;50.126;8.698;2023-09-12T11:20:17;26.90;68.10
997;DHT22;487;50.126;8.698;2023-09-12T11:22:47;27.00;68.50
997;DHT22;487;50.126;8.698;2023-09-12T11:25:19;27.00;65.40
997;DHT22;487;50.126;8.698;2023-09-12T11:28:05;27.10;63.80
997;DHT22;487;50.126;8.698;2023-09-12T11:33:04;26.90;61.70
997;DHT22;487;50.126;8.698;2023-09-12T11:35:37;27.00;61.60
997;DHT22;487;50.126;8.698;2023-09-12T11:38:10;27.10;63.00
997;DHT22;487;50.126;8.698;2023-09-12T11:40:43;27.30;63.00
997;DHT22;487;50.126;8.698;2023-09-12T11:43:20;27.40;62.10
997;DHT22;487;50.126;8.698;2023-09-12T11:50:51;27.50;58.10
997;DHT22;487;50.126;8.698;2023-09-12T11:53:22;27.50;59.40
997;DHT22;487;50.126;8.698;2023-09-12T11:55:53;27.70;59.50
997;DHT22;487;50.126;8.698;2023-09-12T12:00:51;27.80;58.40
997;DHT22;487;50.126;8.698;2023-09-12T12:03:21;27.80;59.20
997;DHT22;487;50.126;8.698;2023-09-12T12:08:18;28.00;60.20
997;DHT22;487;50.126;8.698;2023-09-12T12:10:53;28.00;56.90
997;DHT22;487;50.126;8.698;2023-09-12T12:13:22;28.10;52.50
997;DHT22;487;50.126;8.698;2023-09-12T12:15:50;28.10;52.70
997;DHT22;487;50.126;8.698;2023-09-12T12:18:19;28.10;47.90
997;DHT22;487;50.126;8.698;2023-09-12T12:20:47;28.20;48.50
997;DHT22;487;50.126;8.698;2023-09-12T12:23:14;28.20;49.50
997;DHT22;487;50.126;8.698;2023-09-12T12:25:42;28.30;49.90
997;DHT22;487;50.126;8.698;2023-09-12T12:28:12;28.40;49.10
997;DHT22;487;50.126;8.698;2023-09-12T12:30:40;28.40;49.60
997;DHT22;487;50.126;8.698;2023-09-12T12:33:09;28.50;49.60
997;DHT22;487;50.126;8.698;2023-09-12T12:36:01;28.50;46.20
997;DHT22;487;50.126;8.698;2023-09-12T12:38:33;28.60;47.90
997;DHT22;487;50.126;8.698;2023-09-12T12:41:03;28.60;47.50
997;DHT22;487;50.126;8.698;2023-09-12T12:43:32;28.60;46.10
997;DHT22;487;50.126;8.698;2023-09-12T12:46:00;28.50;44.30
997;DHT22;487;50.126;8.698;2023-09-12T12:48:29;28.50;44.40
997;DHT22;487;50.126;8.698;2023-09-12T12:50:58;28.50;44.10
997;DHT22;487;50.126;8.698;2023-09-12T12:53:39;28.60;44.90
997;DHT22;487;50.126;8.698;2023-09-12T12:56:19;28.60;43.50
997;DHT22;487;50.126;8.698;2023-09-12T12:58:50;28.70;45.30
997;DHT22;487;50.126;8.698;2023-09-12T13:01:18;28.80;44.80
997;DHT22;487;50.126;8.698;2023-09-12T13:03:47;28.90;45.40
997;DHT22;487;50.126;8.698;2023-09-12T13:06:17;29.00;44.10
997;DHT22;487;50.126;8.698;2023-09-12T13:08:46;28.90;46.60
997;DHT22;487;50.126;8.698;2023-09-12T13:11:16;29.00;48.00
997;DHT22;487;50.126;8.698;2023-09-12T13:13:46;29.10;47.90
997;DHT22;487;50.126;8.698;2023-09-12T13:16:16;29.10;44.00
997;DHT22;487;50.126;8.698;2023-09-12T13:18:44;29.00;45.60
997;DHT22;487;50.126;8.698;2023-09-12T13:21:12;29.00;45.70
997;DHT22;487;50.126;8.698;2023-09-12T13:23:40;29.10;46.10
997;DHT22;487;50.126;8.698;2023-09-12T13:26:09;29.10;44.80
997;DHT22;487;50.126;8.698;2023-09-12T13:28:37;29.20;45.50
997;DHT22;487;50.126;8.698;2023-09-12T13:31:05;29.20;44.30
997;DHT22;487;50.126;8.698;2023-09-12T13:33:34;29.30;45.10
997;DHT22;487;50.126;8.698;2023-09-12T13:36:02;29.30;46.00
997;DHT22;487;50.126;8.698;2023-09-12T13:38:30;29.40;46.60
997;DHT22;487;50.126;8.698;2023-09-12T13:40:58;29.40;45.80
997;DHT22;487;50.126;8.698;2023-09-12T13:43:26;29.40;45.80
997;DHT22;487;50.126;8.698;2023-09-12T13:48:25;29.30;41.30
997;DHT22;487;50.126;8.698;2023-09-12T13:50:55;29.30;42.60
997;DHT22;487;50.126;8.698;2023-09-12T13:53:23;29.40;42.00
997;DHT22;487;50.126;8.698;2023-09-12T13:58:39;29.50;44.00
997;DHT22;487;50.126;8.698;2023-09-12T14:01:12;29.50;43.90
997;DHT22;487;50.126;8.698;2023-09-12T14:03:56;29.50;43.60
997;DHT22;487;50.126;8.698;2023-09-12T14:06:26;29.60;42.40
997;DHT22;487;50.126;8.698;2023-09-12T14:08:55;29.60;41.50
997;DHT22;487;50.126;8.698;2023-09-12T14:11:23;29.70;42.00
997;DHT22;487;50.126;8.698;2023-09-12T14:14:02;29.60;35.90
997;DHT22;487;50.126;8.698;2023-09-12T14:19:15;29.70;36.70
997;DHT22;487;50.126;8.698;2023-09-12T14:21:44;29.70;37.50
997;DHT22;487;50.126;8.698;2023-09-12T14:24:15;29.70;36.70
997;DHT22;487;50.126;8.698;2023-09-12T14:26:47;29.70;34.00
997;DHT22;487;50.126;8.698;2023-09-12T14:29:15;29.80;34.40
997;DHT22;487;50.126;8.698;2023-09-12T14:31:43;29.80;34.60
997;DHT22;487;50.126;8.698;2023-09-12T14:34:17;29.90;33.80
997;DHT22;487;50.126;8.698;2023-09-12T14:36:46;29.90;33.90
997;DHT22;487;50.126;8.698;2023-09-12T14:39:14;29.90;35.40
997;DHT22;487;50.126;8.698;2023-09-12T14:44:16;29.90;33.70
997;DHT22;487;50.126;8.698;2023-09-12T14:49:12;30.00;33.00
997;DHT22;487;50.126;8.698;2023-09-12T14:51:40;30.00;33.50
997;DHT22;487;50.126;8.698;2023-09-12T14:54:09;30.00;33.70
997;DHT22;487;50.126;8.698;2023-09-12T14:56:37;30.00;33.20
997;DHT22;487;50.126;8.698;2023-09-12T14:59:05;30.10;33.00
997;DHT22;487;50.126;8.698;2023-09-12T15:01:33;30.10;36.60
997;DHT22;487;50.126;8.698;2023-09-12T15:04:02;30.10;33.30
997;DHT22;487;50.126;8.698;2023-09-12T15:06:30;30.20;37.60
997;DHT22;487;50.126;8.698;2023-09-12T15:11:30;30.20;30.40
997;DHT22;487;50.126;8.698;2023-09-12T15:13:58;30.30;33.40
997;DHT22;487;50.126;8.698;2023-09-12T15:16:26;30.20;32.70
997;DHT22;487;50.126;8.698;2023-09-12T15:21:26;30.30;30.90
997;DHT22;487;50.126;8.698;2023-09-12T15:23:54;30.30;34.00
997;DHT22;487;50.126;8.698;2023-09-12T15:26:23;30.20;34.70
997;DHT22;487;50.126;8.698;2023-09-12T15:28:52;30.30;39.00
997;DHT22;487;50.126;8.698;2023-09-12T15:31:20;30.20;32.70
997;DHT22;487;50.126;8.698;2023-09-12T15:33:48;30.20;36.80
997;DHT22;487;50.126;8.698;2023-09-12T15:36:16;30.20;31.60
997;DHT22;487;50.126;8.698;2023-09-12T15:38:43;30.20;31.00
997;DHT22;487;50.126;8.698;2023-09-12T15:41:11;30.10;31.70
997;DHT22;487;50.126;8.698;2023-09-12T15:43:40;30.20;33.50
997;DHT22;487;50.126;8.698;2023-09-12T15:46:09;30.20;33.10
997;DHT22;487;50.126;8.698;2023-09-12T15:48:51;30.30;42.80
997;DHT22;487;50.126;8.698;2023-09-12T15:51:19;30.40;41.60
997;DHT22;487;50.126;8.698;2023-09-12T15:53:47;30.50;41.80
997;DHT22;487;50.126;8.698;2023-09-12T15:56:15;30.60;39.10
997;DHT22;487;50.126;8.698;2023-09-12T16:01:15;30.70;32.70
997;DHT22;487;50.126;8.698;2023-09-12T16:03:43;30.70;31.70
997;DHT22;487;50.126;8.698;2023-09-12T16:06:12;30.70;31.10
997;DHT22;487;50.126;8.698;2023-09-12T16:08:40;30.80;39.00
997;DHT22;487;50.126;8.698;2023-09-12T16:11:07;30.70;33.10
997;DHT22;487;50.126;8.698;2023-09-12T16:13:35;30.70;35.10
997;DHT22;487;50.126;8.698;2023-09-12T16:16:03;30.70;36.60
997;DHT22;487;50.126;8.698;2023-09-12T16:18:33;30.60;32.10
997;DHT22;487;50.126;8.698;2023-09-12T16:21:01;30.50;31.70
997;DHT22;487;50.126;8.698;2023-09-12T16:23:29;30.30;31.50
997;DHT22;487;50.126;8.698;2023-09-12T16:25:58;30.10;33.00
997;DHT22;487;50.126;8.698;2023-09-12T16:28:27;30.00;38.80
997;DHT22;487;50.126;8.698;2023-09-12T16:33:24;29.80;36.20
997;DHT22;487;50.126;8.698;2023-09-12T16:35:53;29.70;36.70
997;DHT22;487;50.126;8.698;2023-09-12T16:38:21;29.60;38.20
997;DHT22;487;50.126;8.698;2023-09-12T16:40:49;29.50;38.70
997;DHT22;487;50.126;8.698;2023-09-12T16:43:17;29.50;36.00
997;DHT22;487;50.126;8.698;2023-09-12T16:45:44;29.40;35.90
997;DHT22;487;50.126;8.698;2023-09-12T16:48:12;29.40;35.70
997;DHT22;487;50.126;8.698;2023-09-12T16:50:40;29.30;36.50
997;DHT22;487;50.126;8.698;2023-09-12T16:53:09;29.30;33.70
997;DHT22;487;50.126;8.698;2023-09-12T16:58:05;29.10;32.70
997;DHT22;487;50.126;8.698;2023-09-12T17:00:33;29.10;33.00
997;DHT22;487;50.126;8.698;2023-09-12T17:03:01;29.00;32.00
997;DHT22;487;50.126;8.698;2023-09-12T17:05:29;29.00;31.20
997;DHT22;487;50.126;8.698;2023-09-12T17:07:57;28.90;30.50
997;DHT22;487;50.126;8.698;2023-09-12T17:10:26;28.80;30.40
997;DHT22;487;50.126;8.698;2023-09-12T17:15:22;28.70;30.50
997;DHT22;487;50.126;8.698;2023-09-12T17:17:51;28.70;30.90
997;DHT22;487;50.126;8.698;2023-09-12T17:20:19;28.60;31.60
997;DHT22;487;50.126;8.698;2023-09-12T17:25:15;28.50;34.60
997;DHT22;487;50.126;8.698;2023-09-12T17:27:45;28.50;38.40
997;DHT22;487;50.126;8.698;2023-09-12T17:30:14;28.40;41.30
997;DHT22;487;50.126;8.698;2023-09-12T17:35:11;28.30;47.40
997;DHT22;487;50.126;8.698;2023-09-12T17:37:39;28.20;48.80
997;DHT22;487;50.126;8.698;2023-09-12T17:40:07;28.10;50.60
997;DHT22;487;50.126;8.698;2023-09-12T17:45:06;27.90;53.10
997;DHT22;487;50.126;8.698;2023-09-12T17:47:34;27.90;54.70
997;DHT22;487;50.126;8.698;2023-09-12T17:50:03;27.80;53.90
997;DHT22;487;50.126;8.698;2023-09-12T17:52:33;27.70;54.30
997;DHT22;487;50.126;8.698;2023-09-12T17:55:01;27.70;55.30
997;DHT22;487;50.126;8.698;2023-09-12T17:57:29;27.60;56.30
997;DHT22;487;50.126;8.698;2023-09-12T18:02:26;27.50;56.90
997;DHT22;487;50.126;8.698;2023-09-12T18:04:54;27.50;57.70
997;DHT22;487;50.126;8.698;2023-09-12T18:09:51;27.40;59.10
997;DHT22;487;50.126;8.698;2023-09-12T18:14:47;27.30;61.50
997;DHT22;487;50.126;8.698;2023-09-12T18:19:44;27.30;61.90
997;DHT22;487;50.126;8.698;2023-09-12T18:22:12;27.20;63.10
997;DHT22;487;50.126;8.698;2023-09-12T18:29:38;27.20;66.40
997;DHT22;487;50.126;8.698;2023-09-12T18:32:05;27.20;68.20
997;DHT22;487;50.126;8.698;2023-09-12T18:34:33;27.20;68.30
997;DHT22;487;50.126;8.698;2023-09-12T18:37:03;27.00;76.30
997;DHT22;487;50.126;8.698;2023-09-12T18:39:35;27.00;81.90
997;DHT22;487;50.126;8.698;2023-09-12T18:44:32;26.80;95.60
997;DHT22;487;50.126;8.698;2023-09-12T18:47:00;26.80;99.90
997;DHT22;487;50.126;8.698;2023-09-12T18:49:28;26.70;99.90
997;DHT22;487;50.126;8.698;2023-09-12T18:51:57;26.50;99.90
997;DHT22;487;50.126;8.698;2023-09-12T18:54:26;26.40;99.90
997;DHT22;487;50.126;8.698;2023-09-12T18:56:58;26.30;99.90
997;DHT22;487;50.126;8.698;2023-09-12T18:59:27;26.30;99.90
997;DHT22;487;50.126;8.698;2023-09-12T19:01:55;26.30;99.90
997;DHT22;487;50.126;8.698;2023-09-12T19:04:23;26.30;99.90
997;DHT22;487;50.126;8.698;2023-09-12T19:09:20;26.30;99.90
997;DHT22;487;50.126;8.698;2023-09-12T19:11:51;26.20;99.90
997;DHT22;487;50.126;8.698;2023-09-12T19:14:19;26.20;99.90
997;DHT22;487;50.126;8.698;2023-09-12T19:16:51;26.20;99.90
997;DHT22;487;50.126;8.698;2023-09-12T19:21:48;26.10;99.90
997;DHT22;487;50.126;8.698;2023-09-12T19:24:17;26.00;99.90
997;DHT22;487;50.126;8.698;2023-09-12T19:26:45;25.90;99.90
997;DHT22;487;50.126;8.698;2023-09-12T19:31:44;25.80;99.90
997;DHT22;487;50.126;8.698;2023-09-12T19:39:09;24.80;99.90
997;DHT22;487;50.126;8.698;2023-09-12T19:41:37;24.30;99.90
997;DHT22;487;50.126;8.698;2023-09-12T19:44:05;23.60;99.90
997;DHT22;487;50.126;8.698;2023-09-12T19:46:34;23.40;99.90
997;DHT22;487;50.126;8.698;2023-09-12T19:49:07;23.10;99.90
997;DHT22;487;50.126;8.698;2023-09-12T19:51:35;23.00;99.90
997;DHT22;487;50.126;8.698;2023-09-12T19:54:04;22.80;99.90
997;DHT22;487;50.126;8.698;2023-09-12T19:56:31;22.60;99.90
997;DHT22;487;50.126;8.698;2023-09-12T20:03:57;22.30;99.90
997;DHT22;487;50.126;8.698;2023-09-12T20:06:25;22.30;99.90
997;DHT22;487;50.126;8.698;2023-09-12T20:08:54;22.30;99.90
997;DHT22;487;50.126;8.698;2023-09-12T20:13:50;22.50;99.90
997;DHT22;487;50.126;8.698;2023-09-12T20:16:18;22.50;99.90
997;DHT22;487;50.126;8.698;2023-09-12T20:18:48;22.50;99.90
997;DHT22;487;50.126;8.698;2023-09-12T20:21:17;22.50;99.90
997;DHT22;487;50.126;8.698;2023-09-12T20:23:46;22.50;99.90
997;DHT22;487;50.126;8.698;2023-09-12T20:26:14;22.60;99.90
997;DHT22;487;50.126;8.698;2023-09-12T20:28:41;22.70;99.90
997;DHT22;487;50.126;8.698;2023-09-12T20:33:38;22.80;99.90
997;DHT22;487;50.126;8.698;2023-09-12T20:38:43;23.00;99.90
997;DHT22;487;50.126;8.698;2023-09-12T20:48:37;23.10;99.90
997;DHT22;487;50.126;8.698;2023-09-12T20:51:07;24.70;99.90
997;DHT22;487;50.126;8.698;2023-09-12T20:53:37;22.90;99.90
997;DHT22;487;50.126;8.698;2023-09-12T20:58:33;22.30;99.90
997;DHT22;487;50.126;8.698;2023-09-12T21:01:03;22.20;99.90
997;DHT22;487;50.126;8.698;2023-09-12T21:03:31;22.30;99.90
997;DHT22;487;50.126;8.698;2023-09-12T21:05:59;22.30;99.90
997;DHT22;487;50.126;8.698;2023-09-12T21:08:27;22.30;99.90
997;DHT22;487;50.126;8.698;2023-09-12T21:10:56;22.40;99.90
997;DHT22;487;50.126;8.698;2023-09-12T21:18:20;18.30;99.90
997;DHT22;487;50.126;8.698;2023-09-12T21:25:44;22.70;99.90
997;DHT22;487;50.126;8.698;2023-09-12T21:28:13;22.70;99.90
997;DHT22;487;50.126;8.698;2023-09-12T21:30:42;22.70;99.90
997;DHT22;487;50.126;8.698;2023-09-12T21:33:10;22.70;99.90
997;DHT22;487;50.126;8.698;2023-09-12T21:35:38;22.80;99.90
997;DHT22;487;50.126;8.698;2023-09-12T21:40:34;22.80;99.90
997;DHT22;487;50.126;8.698;2023-09-12T21:43:02;22.80;99.90
997;DHT22;487;50.126;8.698;2023-09-12T21:45:31;22.90;99.90
997;DHT22;487;50.126;8.698;2023-09-12T21:47:59;22.90;99.90
997;DHT22;487;50.126;8.698;2023-09-12T21:50:27;23.00;99.90
997;DHT22;487;50.126;8.698;2023-09-12T21:52:55;22.90;99.90
997;DHT22;487;50.126;8.698;2023-09-12T21:55:23;22.40;99.90
997;DHT22;487;50.126;8.698;2023-09-12T22:02:52;22.10;99.90
997;DHT22;487;50.126;8.698;2023-09-12T22:05:21;22.10;99.90
997;DHT22;487;50.126;8.698;2023-09-12T22:07:50;22.20;99.90
997;DHT22;487;50.126;8.698;2023-09-12T22:10:18;22.20;99.90
997;DHT22;487;50.126;8.698;2023-09-12T22:12:46;22.30;99.90
997;DHT22;487;50.126;8.698;2023-09-12T22:15:14;22.30;99.90
997;DHT22;487;50.126;8.698;2023-09-12T22:17:43;22.30;99.90
997;DHT22;487;50.126;8.698;2023-09-12T22:20:13;22.30;99.90
997;DHT22;487;50.126;8.698;2023-09-12T22:22:43;22.30;99.90
997;DHT22;487;50.126;8.698;2023-09-12T22:25:12;22.30;99.90
997;DHT22;487;50.126;8.698;2023-09-12T22:27:40;22.40;99.90
997;DHT22;487;50.126;8.698;2023-09-12T22:30:09;22.40;99.90
997;DHT22;487;50.126;8.698;2023-09-12T22:37:39;22.40;99.90
997;DHT22;487;50.126;8.698;2023-09-12T22:40:08;18.50;99.90
997;DHT22;487;50.126;8.698;2023-09-12T22:42:36;22.10;99.90
997;DHT22;487;50.126;8.698;2023-09-12T22:45:07;22.10;99.90
997;DHT22;487;50.126;8.698;2023-09-12T22:50:04;22.10;99.90
997;DHT22;487;50.126;8.698;2023-09-12T22:52:33;22.10;99.90
997;DHT22;487;50.126;8.698;2023-09-12T22:55:02;22.00;99.90
997;DHT22;487;50.126;8.698;2023-09-12T22:57:31;22.10;99.90
997;DHT22;487;50.126;8.698;2023-09-12T22:59:59;22.10;99.90
997;DHT22;487;50.126;8.698;2023-09-12T23:02:27;22.10;99.90
997;DHT22;487;50.126;8.698;2023-09-12T23:04:55;22.00;99.90
997;DHT22;487;50.126;8.698;2023-09-12T23:07:23;21.90;99.90
997;DHT22;487;50.126;8.698;2023-09-12T23:09:51;21.50;99.90
997;DHT22;487;50.126;8.698;2023-09-12T23:12:20;21.20;99.90
997;DHT22;487;50.126;8.698;2023-09-12T23:14:48;21.10;99.90
997;DHT22;487;50.126;8.698;2023-09-12T23:19:48;20.90;99.90
997;DHT22;487;50.126;8.698;2023-09-12T23:22:16;20.80;99.90
997;DHT22;487;50.126;8.698;2023-09-12T23:27:13;20.60;99.90
997;DHT22;487;50.126;8.698;2023-09-12T23:29:42;20.70;99.90
997;DHT22;487;50.126;8.698;2023-09-12T23:32:10;20.60;99.90
997;DHT22;487;50.126;8.698;2023-09-12T23:34:37;20.60;99.90
997;DHT22;487;50.126;8.698;2023-09-12T23:37:05;20.60;99.90
997;DHT22;487;50.126;8.698;2023-09-12T23:42:02;20.80;99.90
997;DHT22;487;50.126;8.698;2023-09-12T23:44:31;20.70;99.90
997;DHT22;487;50.126;8.698;2023-09-12T23:47:00;20.80;99.90
997;DHT22;487;50.126;8.698;2023-09-12T23:49:28;20.70;99.90
997;DHT22;487;50.126;8.698;2023-09-12T23:51:56;20.60;99.90
997;DHT22;487;50.126;8.698;2023-09-12T23:54:24;20.70;99.90
997;DHT22;487;50.126;8.698;2023-09-12T23:56:52;20.60;99.90
997;DHT22;487;50.126;8.698;2023-09-12T23:59:20;20.60;99.90
